Time;durP1;ratioP1;P1;durP2;ratioP2;P2;SDS_P1;SDS_P2;PMS_P1;PMS_P2;Temp;Humidity;BMP_temperature;BMP_pressure;BME280_temperature;BME280_humidity;BME280_pressure;Samples;Min_cycle;Max_cycle;Signal;HPM_P1;HPM_P2
2021/09/12 00:00:40;;;;;;;52.97;39.03;;;;;;;12.42;100.00;99121.34;2073684;28;20625;-72
2021/09/12 00:01:40;;;;;;;50.38;38.63;;;;;;;12.45;100.00;99122.59;2073739;28;20238;-73
2021/09/12 00:02:42;;;;;;;52.33;37.87;;;;;;;12.44;100.00;99131.72;2081503;28;20206;-73
2021/09/12 00:03:42;;;;;;;50.72;38.58;;;;;;;12.46;100.00;99129.53;2081971;28;20191;-72
2021/09/12 00:04:45;;;;;;;49.43;37.40;;;;;;;12.48;100.00;99129.22;2081991;28;20199;-73
2021/09/12 00:05:45;;;;;;;52.05;37.90;;;;;;;12.48;100.00;99132.69;2082068;28;20199;-72
2021/09/12 00:06:48;;;;;;;55.43;38.97;;;;;;;12.49;100.00;99128.13;2090786;28;20179;-73
2021/09/12 00:07:48;;;;;;;51.92;37.10;;;;;;;12.48;100.00;99127.34;2090877;28;20202;-72
2021/09/12 00:08:51;;;;;;;54.53;38.53;;;;;;;12.47;100.00;99128.44;2081400;28;20282;-72
2021/09/12 00:09:52;;;;;;;52.88;37.72;;;;;;;12.50;100.00;99127.03;2081976;28;20674;-72
2021/09/12 00:10:54;;;;;;;55.03;37.73;;;;;;;12.50;100.00;99124.34;2090741;28;20526;-73
2021/09/12 00:11:54;;;;;;;53.13;38.45;;;;;;;12.51;100.00;99125.91;2090736;28;20657;-73
2021/09/12 00:12:57;;;;;;;50.97;36.80;;;;;;;12.50;100.00;99127.03;2081813;28;20629;-73
2021/09/12 00:13:57;;;;;;;53.35;36.75;;;;;;;12.49;100.00;99125.44;2073690;28;20208;-72
2021/09/12 00:14:59;;;;;;;50.47;37.60;;;;;;;12.48;100.00;99137.25;2073614;28;20201;-73
2021/09/12 00:16:01;;;;;;;49.13;35.95;;;;;;;12.47;100.00;99131.09;2081877;28;20195;-73
2021/09/12 00:17:03;;;;;;;45.47;35.92;;;;;;;12.44;100.00;99131.72;2090692;28;20195;-73
2021/09/12 00:18:05;;;;;;;43.83;36.25;;;;;;;12.44;100.00;99123.69;2090948;28;20342;-72
2021/09/12 00:19:07;;;;;;;47.05;35.53;;;;;;;12.45;100.00;99133.31;2081309;28;20302;-72
2021/09/12 00:20:10;;;;;;;50.83;35.88;;;;;;;12.48;100.00;99132.69;2082186;28;20298;-72
2021/09/12 00:21:11;;;;;;;56.08;37.47;;;;;;;12.45;100.00;99122.59;2090614;28;20203;-73
2021/09/12 00:22:12;;;;;;;49.17;36.50;;;;;;;12.47;100.00;99123.09;2081799;28;20198;-72
2021/09/12 00:23:13;;;;;;;44.13;35.25;;;;;;;12.47;100.00;99131.09;2073507;28;20230;-73
2021/09/12 00:24:16;;;;;;;50.93;36.53;;;;;;;12.44;100.00;99127.16;2081798;28;20187;-72
2021/09/12 00:25:16;;;;;;;47.20;36.28;;;;;;;12.42;100.00;99125.88;2090802;28;20626;-72
2021/09/12 00:26:19;;;;;;;51.53;36.47;;;;;;;12.41;100.00;99125.09;2090659;28;20187;-72
2021/09/12 00:27:20;;;;;;;56.33;37.53;;;;;;;12.39;100.00;99127.28;2090702;28;20191;-72
2021/09/12 00:28:21;;;;;;;50.87;36.37;;;;;;;12.39;100.00;99127.28;2090865;28;20222;-73
2021/09/12 00:29:22;;;;;;;46.75;35.50;;;;;;;12.39;100.00;99135.31;2090600;28;20689;-72
2021/09/12 00:30:23;;;;;;;54.40;36.43;;;;;;;12.36;100.00;99130.56;2090595;28;20664;-72
2021/09/12 00:31:24;;;;;;;49.10;35.22;;;;;;;12.37;100.00;99129.47;2090694;28;20676;-73
2021/09/12 00:32:26;;;;;;;48.03;35.77;;;;;;;12.41;100.00;99127.75;2090575;28;20546;-73
2021/09/12 00:33:31;;;;;;;45.22;34.80;;;;;;;12.42;100.00;99129.38;2090461;28;20211;-73
2021/09/12 00:34:33;;;;;;;45.90;35.03;;;;;;;12.42;100.00;99129.38;2081658;28;20593;-73
2021/09/12 00:35:34;;;;;;;47.42;35.25;;;;;;;12.41;100.00;99122.41;2081907;28;20214;-72
2021/09/12 00:36:35;;;;;;;44.93;35.17;;;;;;;12.41;100.00;99127.75;2090749;28;20187;-72
2021/09/12 00:37:36;;;;;;;48.03;36.30;;;;;;;12.42;100.00;99129.38;2090440;28;20218;-73
2021/09/12 00:38:38;;;;;;;48.65;35.78;;;;;;;12.41;100.00;99122.41;2090513;28;20233;-72
2021/09/12 00:39:41;;;;;;;46.80;34.92;;;;;;;12.41;100.00;99121.63;2090418;28;20317;-72
2021/09/12 00:40:43;;;;;;;44.40;35.10;;;;;;;12.38;100.00;99117.69;2090333;28;20183;-72
2021/09/12 00:41:45;;;;;;;47.00;35.08;;;;;;;12.37;100.00;99116.09;2081619;28;20659;-73
2021/09/12 00:42:46;;;;;;;51.38;35.95;;;;;;;12.39;100.00;99113.91;2073587;28;20604;-72
2021/09/12 00:43:47;;;;;;;48.80;35.15;;;;;;;12.37;100.00;99121.47;2073486;28;20200;-73
2021/09/12 00:44:48;;;;;;;44.03;35.17;;;;;;;12.36;100.00;99114.53;2081684;28;20194;-72
2021/09/12 00:45:51;;;;;;;46.15;33.75;;;;;;;12.36;100.00;99108.38;2090596;28;20222;-73
2021/09/12 00:46:53;;;;;;;45.13;34.67;;;;;;;12.36;100.00;99119.88;2090436;28;20209;-73
2021/09/12 00:47:54;;;;;;;45.63;34.90;;;;;;;12.37;100.00;99116.09;2090151;28;20286;-72
2021/09/12 00:48:57;;;;;;;45.13;34.47;;;;;;;12.39;100.00;99116.59;2090453;28;20225;-73
2021/09/12 00:49:57;;;;;;;53.95;35.17;;;;;;;12.37;100.00;99113.44;2080833;28;20208;-72
2021/09/12 00:50:59;;;;;;;43.67;33.80;;;;;;;12.41;100.00;99117.06;2081778;28;20696;-73
2021/09/12 00:52:00;;;;;;;46.20;34.03;;;;;;;12.45;100.00;99118.03;2090422;28;20191;-73
2021/09/12 00:53:03;;;;;;;44.88;35.60;;;;;;;12.47;100.00;99108.91;2081383;28;20206;-72
2021/09/12 00:54:04;;;;;;;46.38;34.83;;;;;;;12.47;100.00;99117.72;2073618;28;20211;-72
2021/09/12 00:55:10;;;;;;;44.55;34.45;;;;;;;12.48;100.00;99110.50;2081846;28;20688;-72
2021/09/12 00:56:12;;;;;;;48.25;34.58;;;;;;;12.49;100.00;99112.06;2090694;28;20186;-73
2021/09/12 00:57:14;;;;;;;44.10;33.55;;;;;;;12.50;100.00;99114.44;2081222;28;20200;-73
2021/09/12 00:58:15;;;;;;;47.45;34.50;;;;;;;12.49;100.00;99114.75;2081722;28;20215;-72
2021/09/12 00:59:17;;;;;;;43.33;34.45;;;;;;;12.49;100.00;99117.41;2090348;28;20660;-72
2021/09/12 01:00:18;;;;;;;46.25;35.08;;;;;;;12.51;100.00;99117.91;2090392;28;20249;-72
2021/09/12 01:01:19;;;;;;;46.10;35.13;;;;;;;12.51;100.00;99108.00;2081391;28;20753;-73
2021/09/12 01:02:22;;;;;;;41.97;33.90;;;;;;;12.52;100.00;99111.47;2073369;28;20208;-73
2021/09/12 01:03:26;;;;;;;47.05;35.30;;;;;;;12.54;100.00;99114.63;2081997;28;20190;-72
2021/09/12 01:04:27;;;;;;;47.88;33.30;;;;;;;12.53;100.00;99105.03;2081084;28;20238;-72
2021/09/12 01:05:29;;;;;;;42.17;33.37;;;;;;;12.54;100.00;99109.28;2081580;28;20654;-72
2021/09/12 01:06:30;;;;;;;47.13;34.08;;;;;;;12.55;100.00;99108.97;2090348;28;20244;-73
2021/09/12 01:07:31;;;;;;;44.67;32.90;;;;;;;12.52;100.00;99106.13;2090387;28;20190;-72
2021/09/12 01:08:32;;;;;;;43.65;33.33;;;;;;;12.52;100.00;99104.22;2081467;28;20202;-72
2021/09/12 01:09:38;;;;;;;41.00;33.67;;;;;;;12.55;100.00;99108.97;2081676;28;20282;-72
2021/09/12 01:10:41;;;;;;;44.78;33.30;;;;;;;12.57;100.00;99114.00;2081341;28;20669;-73
2021/09/12 01:11:42;;;;;;;40.33;32.00;;;;;;;12.52;100.00;99100.75;2081720;28;20195;-73
2021/09/12 01:12:43;;;;;;;43.05;33.42;;;;;;;12.50;100.00;99109.06;2090237;28;20616;-73
2021/09/12 01:13:45;;;;;;;43.63;33.40;;;;;;;12.52;100.00;99106.91;2090363;28;20187;-72
2021/09/12 01:14:46;;;;;;;41.03;32.58;;;;;;;12.51;100.00;99112.53;2090485;28;20229;-72
2021/09/12 01:15:48;;;;;;;41.13;33.83;;;;;;;12.51;100.00;99107.19;2090220;28;20187;-73
2021/09/12 01:16:49;;;;;;;46.58;33.70;;;;;;;12.46;100.00;99108.13;2090349;28;20186;-73
2021/09/12 01:17:51;;;;;;;44.42;34.63;;;;;;;12.44;100.00;99116.47;2090259;28;20195;-73
2021/09/12 01:18:52;;;;;;;42.50;32.55;;;;;;;12.47;100.00;99112.38;2090319;28;20191;-72
2021/09/12 01:19:53;;;;;;;46.53;33.77;;;;;;;12.43;100.00;99117.56;2090256;28;20210;-73
2021/09/12 01:20:54;;;;;;;44.85;33.78;;;;;;;12.39;100.00;99113.13;2090207;28;20723;-72
2021/09/12 01:21:57;;;;;;;42.83;32.90;;;;;;;12.38;100.00;99106.19;2090228;28;20568;-72
2021/09/12 01:22:58;;;;;;;44.67;33.33;;;;;;;12.38;100.00;99112.31;2081377;28;20200;-72
2021/09/12 01:23:59;;;;;;;45.22;34.17;;;;;;;12.38;100.00;99115.00;2081037;28;20210;-72
2021/09/12 01:25:02;;;;;;;47.60;34.23;;;;;;;12.35;100.00;99112.94;2081468;28;20198;-73
2021/09/12 01:26:03;;;;;;;37.47;33.13;;;;;;;12.35;100.00;99109.50;2081379;28;20450;-73
2021/09/12 01:27:05;;;;;;;46.83;33.27;;;;;;;12.32;100.00;99116.22;2081456;28;20699;-73
2021/09/12 01:28:06;;;;;;;44.92;34.15;;;;;;;12.32;100.00;99110.06;2081340;28;20200;-72
2021/09/12 01:29:07;;;;;;;41.93;32.93;;;;;;;12.32;100.00;99108.19;2073193;28;20242;-72
2021/09/12 01:30:10;;;;;;;44.67;33.80;;;;;;;12.33;100.00;99112.44;2080672;28;20446;-72
2021/09/12 01:31:18;;;;;;;42.35;33.92;;;;;;;12.31;100.00;99105.81;2073418;28;20200;-72
2021/09/12 01:32:19;;;;;;;42.13;33.47;;;;;;;12.31;100.00;99106.63;2082734;28;20176;-72
2021/09/12 01:33:20;;;;;;;47.30;33.53;;;;;;;12.35;100.00;99107.59;2090133;28;20754;-73
2021/09/12 01:34:22;;;;;;;44.20;33.30;;;;;;;12.39;100.00;99108.56;2090346;28;20586;-72
2021/09/12 01:35:22;;;;;;;40.03;33.33;;;;;;;12.41;100.00;99108.25;2090305;28;20199;-73
2021/09/12 01:36:24;;;;;;;46.63;33.90;;;;;;;12.39;100.00;99103.19;2081297;28;20290;-72
2021/09/12 01:37:28;;;;;;;44.60;35.28;;;;;;;12.38;100.00;99103.50;2081293;28;20231;-72
2021/09/12 01:38:29;;;;;;;43.17;34.38;;;;;;;12.38;100.00;99101.63;2081768;28;20551;-72
2021/09/12 01:39:31;;;;;;;46.83;34.33;;;;;;;12.41;100.00;99110.91;2090154;28;20227;-72
2021/09/12 01:40:34;;;;;;;48.78;36.55;;;;;;;12.38;100.00;99098.16;2090199;28;20195;-73
2021/09/12 01:41:35;;;;;;;49.05;33.08;;;;;;;12.38;100.00;99106.97;2090342;28;20685;-72
2021/09/12 01:42:37;;;;;;;49.17;35.13;;;;;;;12.38;100.00;99106.19;2090210;28;20561;-73
2021/09/12 01:43:44;;;;;;;45.35;34.40;;;;;;;12.38;100.00;99112.31;2090298;28;20190;-72
2021/09/12 01:44:47;;;;;;;47.13;34.22;;;;;;;12.38;100.00;99112.31;2090308;28;20172;-73
2021/09/12 01:45:47;;;;;;;46.05;35.15;;;;;;;12.37;100.00;99104.63;2090235;28;20183;-72
2021/09/12 01:46:50;;;;;;;54.33;35.50;;;;;;;12.34;100.00;99100.66;2090140;28;20274;-72
2021/09/12 01:47:51;;;;;;;48.67;35.63;;;;;;;12.37;100.00;99113.44;2081297;28;20191;-73
2021/09/12 01:48:54;;;;;;;53.67;36.93;;;;;;;12.35;100.00;99107.59;2081537;28;20275;-73
2021/09/12 01:49:55;;;;;;;51.33;38.05;;;;;;;12.34;100.00;99111.38;2090169;28;20282;-72
2021/09/12 01:50:57;;;;;;;50.93;38.63;;;;;;;12.33;100.00;99104.41;2080967;28;20199;-72
2021/09/12 01:51:57;;;;;;;53.85;38.33;;;;;;;12.31;100.00;99100.47;2081482;28;20650;-72
2021/09/12 01:52:59;;;;;;;56.10;40.20;;;;;;;12.28;100.00;99106.44;2090531;28;20590;-72
2021/09/12 01:54:00;;;;;;;52.47;38.88;;;;;;;12.29;100.00;99108.81;2090411;28;20191;-72
2021/09/12 01:55:02;;;;;;;55.50;38.97;;;;;;;12.30;100.00;99110.38;2090056;28;20183;-72
2021/09/12 01:56:04;;;;;;;53.20;38.88;;;;;;;12.29;100.00;99108.81;2090077;28;20563;-72
2021/09/12 01:57:06;;;;;;;55.55;38.55;;;;;;;12.27;100.00;99111.00;2081272;28;20202;-72
2021/09/12 01:58:06;;;;;;;55.03;39.10;;;;;;;12.26;100.00;99120.13;2081459;28;20191;-72
2021/09/12 01:59:08;;;;;;;47.43;37.17;;;;;;;12.25;100.00;99113.22;2090067;28;20269;-72
2021/09/12 02:00:09;;;;;;;50.83;38.70;;;;;;;12.24;100.00;99116.94;2082158;28;20237;-72
2021/09/12 02:01:13;;;;;;;59.85;39.95;;;;;;;12.24;100.00;99113.50;2083000;28;20749;-72
2021/09/12 02:02:14;;;;;;;57.08;39.63;;;;;;;12.25;100.00;99113.22;2082827;28;20233;-72
2021/09/12 02:03:16;;;;;;;59.60;40.73;;;;;;;12.26;100.00;99117.47;2083138;28;20188;-73
2021/09/12 02:04:16;;;;;;;52.83;39.85;;;;;;;12.26;100.00;99114.78;2091738;28;20223;-72
2021/09/12 02:05:18;;;;;;;60.47;41.87;;;;;;;12.23;100.00;99115.38;2082846;28;20195;-72
2021/09/12 02:06:18;;;;;;;57.15;39.95;;;;;;;12.23;100.00;99114.59;2082845;28;20199;-72
2021/09/12 02:07:21;;;;;;;59.93;42.17;;;;;;;12.24;100.00;99116.16;2091917;28;20191;-72
2021/09/12 02:08:22;;;;;;;58.05;41.75;;;;;;;12.30;100.00;99115.75;2091939;28;20653;-72
2021/09/12 02:09:26;;;;;;;59.80;42.47;;;;;;;12.28;100.00;99117.94;2091734;28;20581;-72
2021/09/12 02:10:28;;;;;;;63.67;42.90;;;;;;;12.26;100.00;99114.78;2091599;28;20198;-72
2021/09/12 02:11:31;;;;;;;58.30;43.47;;;;;;;12.25;100.00;99117.75;2091909;28;20542;-72
2021/09/12 02:12:32;;;;;;;59.00;42.53;;;;;;;12.24;100.00;99116.94;2091670;28;20191;-72
2021/09/12 02:13:34;;;;;;;60.30;42.87;;;;;;;12.26;100.00;99117.47;2091762;28;20649;-72
2021/09/12 02:14:34;;;;;;;63.08;43.05;;;;;;;12.23;100.00;99119.94;2082633;28;20195;-72
2021/09/12 02:15:36;;;;;;;63.77;44.20;;;;;;;12.20;100.00;99117.88;2082924;28;20198;-72
2021/09/12 02:16:37;;;;;;;56.10;43.72;;;;;;;12.17;100.00;99111.25;2091632;28;20219;-72
2021/09/12 02:17:39;;;;;;;58.97;43.15;;;;;;;12.18;100.00;99123.53;2082646;28;20254;-72
2021/09/12 02:18:40;;;;;;;61.53;42.53;;;;;;;12.15;100.00;99124.13;2074487;28;20291;-73
2021/09/12 02:19:41;;;;;;;60.00;43.43;;;;;;;12.14;100.00;99125.22;2082661;28;20208;-72
2021/09/12 02:20:42;;;;;;;58.80;43.22;;;;;;;12.12;100.00;99119.41;2074542;28;20247;-72
2021/09/12 02:21:43;;;;;;;65.40;43.40;;;;;;;12.11;100.00;99117.81;2082826;28;20219;-72
2021/09/12 02:22:44;;;;;;;62.05;43.72;;;;;;;12.11;100.00;99121.28;2082546;28;20231;-72
2021/09/12 02:23:46;;;;;;;61.83;43.40;;;;;;;12.09;100.00;99120.81;2082945;28;20184;-73
2021/09/12 02:24:47;;;;;;;61.60;43.65;;;;;;;12.07;100.00;99122.19;2091580;28;20649;-73
2021/09/12 02:25:48;;;;;;;56.00;42.07;;;;;;;12.04;100.00;99118.25;2091572;28;20519;-72
2021/09/12 02:26:51;;;;;;;64.60;43.55;;;;;;;12.03;100.00;99116.66;2082658;28;20299;-73
2021/09/12 02:27:52;;;;;;;65.65;43.15;;;;;;;12.02;100.00;99116.97;2082853;28;20710;-73
2021/09/12 02:28:53;;;;;;;60.43;42.67;;;;;;;12.00;100.00;99116.50;2082682;28;20647;-72
2021/09/12 02:29:55;;;;;;;64.55;43.42;;;;;;;12.00;100.00;99125.31;2082601;28;20198;-73
2021/09/12 02:30:57;;;;;;;63.15;42.35;;;;;;;11.98;100.00;99121.34;2091639;28;20182;-72
2021/09/12 02:31:57;;;;;;;59.35;43.22;;;;;;;11.99;100.00;99122.91;2091417;28;20187;-73
2021/09/12 02:32:59;;;;;;;61.40;42.43;;;;;;;11.98;100.00;99121.34;2082720;28;20279;-72
2021/09/12 02:34:00;;;;;;;60.70;44.42;;;;;;;11.99;100.00;99115.72;2082753;28;20211;-72
2021/09/12 02:35:01;;;;;;;61.93;43.80;;;;;;;12.00;100.00;99121.84;2091596;28;20192;-72
2021/09/12 02:36:02;;;;;;;60.08;44.28;;;;;;;11.99;100.00;99120.22;2082559;28;20229;-72
2021/09/12 02:37:04;;;;;;;57.50;43.00;;;;;;;12.00;100.00;99119.16;2082642;28;20251;-73
2021/09/12 02:38:05;;;;;;;61.97;43.05;;;;;;;11.99;100.00;99117.56;2091482;28;20278;-72
2021/09/12 02:39:09;;;;;;;62.42;43.95;;;;;;;11.97;100.00;99120.53;2082348;28;20235;-72
2021/09/12 02:40:11;;;;;;;59.72;43.53;;;;;;;11.98;100.00;99121.34;2074317;28;20215;-73
2021/09/12 02:41:13;;;;;;;68.47;44.38;;;;;;;11.95;100.00;99119.28;2082879;28;20184;-72
2021/09/12 02:42:16;;;;;;;59.08;42.25;;;;;;;11.96;100.00;99127.00;2091564;28;20218;-73
2021/09/12 02:43:16;;;;;;;65.13;43.58;;;;;;;11.96;100.00;99127.00;2082428;28;20736;-72
2021/09/12 02:44:20;;;;;;;53.87;40.83;;;;;;;11.97;100.00;99127.78;2082704;28;20575;-72
2021/09/12 02:45:21;;;;;;;56.08;41.00;;;;;;;12.02;100.00;99119.66;2091393;28;20552;-72
2021/09/12 02:46:25;;;;;;;59.83;41.10;;;;;;;11.99;100.00;99121.06;2091516;28;20187;-71
2021/09/12 02:47:26;;;;;;;55.83;40.95;;;;;;;12.02;100.00;99127.66;2091646;28;20195;-72
2021/09/12 02:48:27;;;;;;;58.10;41.53;;;;;;;11.98;100.00;99113.31;2091398;28;20183;-73
2021/09/12 02:49:28;;;;;;;61.42;41.75;;;;;;;11.97;100.00;99122.44;2091574;28;20603;-72
2021/09/12 02:50:30;;;;;;;57.13;41.83;;;;;;;11.96;100.00;99126.19;2082495;28;20210;-72
2021/09/12 02:51:30;;;;;;;55.67;40.55;;;;;;;12.03;100.00;99126.56;2074292;28;20279;-72
2021/09/12 02:52:35;;;;;;;56.70;40.97;;;;;;;12.05;100.00;99121.72;2082757;28;20192;-73
2021/09/12 02:53:35;;;;;;;56.30;40.95;;;;;;;12.02;100.00;99120.44;2082382;28;20255;-72
2021/09/12 02:54:37;;;;;;;52.17;38.63;;;;;;;12.03;100.00;99126.56;2082584;28;20704;-72
2021/09/12 02:55:37;;;;;;;58.70;40.47;;;;;;;12.00;100.00;99121.84;2091319;28;20190;-72
2021/09/12 02:56:39;;;;;;;62.20;40.80;;;;;;;11.99;100.00;99125.59;2082370;28;20198;-72
2021/09/12 02:57:41;;;;;;;51.25;38.80;;;;;;;12.00;100.00;99132.53;2082416;28;20208;-73
2021/09/12 02:58:43;;;;;;;51.97;39.75;;;;;;;11.98;100.00;99130.13;2082344;28;20546;-72
2021/09/12 02:59:44;;;;;;;55.03;39.75;;;;;;;11.95;100.00;99125.41;2073532;28;20204;-72
2021/09/12 03:00:46;;;;;;;57.15;40.70;;;;;;;11.94;100.00;99131.84;2074246;28;20220;-72
2021/09/12 03:01:47;;;;;;;53.80;38.42;;;;;;;11.93;100.00;99126.81;2082371;28;20270;-72
2021/09/12 03:02:48;;;;;;;56.07;38.07;;;;;;;11.91;100.00;99127.13;2091351;28;20195;-72
2021/09/12 03:03:49;;;;;;;52.45;39.13;;;;;;;11.91;100.00;99129.78;2082366;28;20284;-72
2021/09/12 03:04:50;;;;;;;53.27;39.97;;;;;;;11.92;100.00;99127.91;2082560;28;20196;-72
2021/09/12 03:05:52;;;;;;;51.83;39.20;;;;;;;11.93;100.00;99127.59;2091447;28;20183;-72
2021/09/12 03:06:53;;;;;;;50.53;38.40;;;;;;;11.92;100.00;99131.38;2091223;28;20221;-72
2021/09/12 03:07:56;;;;;;;55.13;38.93;;;;;;;11.91;100.00;99129.78;2082317;28;20191;-72
2021/09/12 03:08:58;;;;;;;53.67;40.05;;;;;;;11.92;100.00;99130.59;2074360;28;20267;-72
2021/09/12 03:10:00;;;;;;;50.35;38.05;;;;;;;11.92;100.00;99135.94;2082642;28;20214;-72
2021/09/12 03:11:02;;;;;;;52.67;38.38;;;;;;;11.93;100.00;99138.31;2091126;28;20190;-72
2021/09/12 03:12:03;;;;;;;57.88;38.53;;;;;;;11.96;100.00;99142.25;2091088;28;20210;-72
2021/09/12 03:13:06;;;;;;;52.78;38.20;;;;;;;12.06;100.00;99142.78;2081922;28;20561;-72
2021/09/12 03:14:06;;;;;;;49.80;37.28;;;;;;;12.07;100.00;99133.66;2082531;28;20227;-72
2021/09/12 03:15:09;;;;;;;50.43;38.57;;;;;;;12.05;100.00;99129.72;2091195;28;20194;-72
2021/09/12 03:16:09;;;;;;;54.38;38.42;;;;;;;12.04;100.00;99136.16;2082255;28;20747;-72
2021/09/12 03:17:11;;;;;;;53.80;37.27;;;;;;;12.01;100.00;99128.75;2082262;28;20605;-72
2021/09/12 03:18:12;;;;;;;49.97;38.38;;;;;;;12.00;100.00;99129.88;2082417;28;20196;-73
2021/09/12 03:19:13;;;;;;;52.67;37.10;;;;;;;11.98;100.00;99132.81;2091227;28;20662;-73
2021/09/12 03:20:14;;;;;;;52.13;36.10;;;;;;;11.99;100.00;99138.94;2082230;28;20283;-72
2021/09/12 03:21:16;;;;;;;45.80;36.10;;;;;;;11.98;100.00;99137.38;2082337;28;20187;-72
2021/09/12 03:22:17;;;;;;;46.08;36.00;;;;;;;11.95;100.00;99129.97;2091000;28;20295;-72
2021/09/12 03:23:20;;;;;;;51.60;36.83;;;;;;;11.93;100.00;99137.50;2091395;28;20187;-73
2021/09/12 03:24:21;;;;;;;47.40;36.92;;;;;;;11.97;100.00;99138.47;2082397;28;20203;-72
2021/09/12 03:25:23;;;;;;;45.50;35.60;;;;;;;11.96;100.00;99136.91;2082302;28;20184;-72
2021/09/12 03:26:23;;;;;;;42.88;35.17;;;;;;;11.93;100.00;99132.16;2082335;28;20245;-72
2021/09/12 03:27:25;;;;;;;45.37;34.83;;;;;;;11.92;100.00;99130.59;2082292;28;20191;-72
2021/09/12 03:28:27;;;;;;;44.15;34.05;;;;;;;11.91;100.00;99129.78;2091060;28;20187;-72
2021/09/12 03:29:30;;;;;;;48.33;36.03;;;;;;;11.92;100.00;99131.38;2091093;28;20191;-72
2021/09/12 03:30:31;;;;;;;47.83;34.20;;;;;;;11.96;100.00;99134.22;2091028;28;20324;-72
2021/09/12 03:31:33;;;;;;;39.07;32.20;;;;;;;11.97;100.00;99127.78;2091168;28;20214;-73
2021/09/12 03:32:34;;;;;;;44.70;33.08;;;;;;;11.98;100.00;99127.47;2091040;28;20736;-73
2021/09/12 03:33:35;;;;;;;41.90;33.17;;;;;;;11.96;100.00;99123.53;2082045;28;20587;-72
2021/09/12 03:34:36;;;;;;;38.95;33.30;;;;;;;11.97;100.00;99133.13;2082390;28;20525;-72
2021/09/12 03:35:37;;;;;;;39.57;33.00;;;;;;;11.98;100.00;99132.03;2082093;28;20725;-72
2021/09/12 03:36:39;;;;;;;48.75;35.65;;;;;;;11.93;100.00;99122.25;2082198;28;20184;-73
2021/09/12 03:37:41;;;;;;;44.58;34.38;;;;;;;11.93;100.00;99124.94;2082083;28;20188;-72
2021/09/12 03:38:44;;;;;;;46.17;33.85;;;;;;;11.90;100.00;99122.84;2081864;28;20219;-72
2021/09/12 03:39:44;;;;;;;45.00;34.17;;;;;;;11.88;100.00;99125.81;2082248;28;20212;-72
2021/09/12 03:40:46;;;;;;;49.80;34.63;;;;;;;11.86;100.00;99116.53;2091324;28;20191;-72
2021/09/12 03:41:47;;;;;;;48.78;35.30;;;;;;;11.82;100.00;99121.72;2091041;28;20191;-72
2021/09/12 03:42:48;;;;;;;44.93;35.40;;;;;;;11.82;100.00;99120.91;2091093;28;20217;-72
2021/09/12 03:43:50;;;;;;;48.47;36.47;;;;;;;11.79;100.00;99122.25;2091181;28;20278;-72
2021/09/12 03:44:52;;;;;;;46.97;36.40;;;;;;;11.76;100.00;99120.19;2090957;28;20179;-72
2021/09/12 03:45:56;;;;;;;46.80;35.00;;;;;;;11.73;100.00;99128.84;2090937;28;20187;-72
2021/09/12 03:46:57;;;;;;;44.60;33.83;;;;;;;11.71;100.00;99133.66;2081959;28;20227;-73
2021/09/12 03:47:58;;;;;;;45.33;35.65;;;;;;;11.67;100.00;99127.34;2082087;28;20184;-73
2021/09/12 03:48:59;;;;;;;43.67;34.33;;;;;;;11.64;100.00;99133.31;2081992;28;20195;-72
2021/09/12 03:50:01;;;;;;;48.60;36.22;;;;;;;11.64;100.00;99133.31;2073784;28;20295;-73
2021/09/12 03:51:03;;;;;;;43.03;33.97;;;;;;;11.65;100.00;99136.78;2082296;28;20238;-72
2021/09/12 03:52:04;;;;;;;46.22;35.38;;;;;;;11.64;100.00;99133.31;2090897;28;20259;-72
2021/09/12 03:53:06;;;;;;;36.53;32.23;;;;;;;11.65;100.00;99137.56;2081983;28;20667;-72
2021/09/12 03:54:07;;;;;;;41.53;34.67;;;;;;;11.68;100.00;99141.50;2082329;28;20686;-72
2021/09/12 03:55:09;;;;;;;43.60;34.63;;;;;;;11.71;100.00;99136.34;2081934;28;20238;-72
2021/09/12 03:56:09;;;;;;;49.58;35.78;;;;;;;11.71;100.00;99135.56;2082360;28;20313;-72
2021/09/12 03:57:11;;;;;;;41.30;34.23;;;;;;;11.73;100.00;99134.19;2090820;28;20192;-73
2021/09/12 03:58:12;;;;;;;45.78;34.55;;;;;;;11.75;100.00;99132.00;2081932;28;20195;-73
2021/09/12 03:59:16;;;;;;;44.17;33.65;;;;;;;11.74;100.00;99130.41;2081908;28;20214;-72
2021/09/12 04:00:17;;;;;;;40.90;34.00;;;;;;;11.75;100.00;99132.00;2082119;28;20233;-72
2021/09/12 04:01:18;;;;;;;42.97;33.80;;;;;;;11.77;100.00;99129.78;2081862;28;20199;-73
2021/09/12 04:02:19;;;;;;;40.60;32.30;;;;;;;11.79;100.00;99132.94;2073566;28;20709;-72
2021/09/12 04:03:21;;;;;;;46.33;32.27;;;;;;;11.79;100.00;99135.63;2081070;28;20636;-72
2021/09/12 04:04:21;;;;;;;43.80;31.95;;;;;;;11.80;100.00;99131.88;2081997;28;20706;-72
2021/09/12 04:05:26;;;;;;;40.67;32.30;;;;;;;11.82;100.00;99131.63;2090775;28;20657;-72
2021/09/12 04:06:26;;;;;;;37.33;31.70;;;;;;;11.83;100.00;99131.31;2081831;28;20255;-73
2021/09/12 04:07:28;;;;;;;35.80;30.57;;;;;;;11.84;100.00;99134.75;2073663;28;20197;-72
2021/09/12 04:08:29;;;;;;;39.22;32.45;;;;;;;11.87;100.00;99137.63;2073923;28;20342;-72
2021/09/12 04:09:30;;;;;;;40.33;32.83;;;;;;;11.88;100.00;99135.72;2073622;28;20208;-72
2021/09/12 04:10:31;;;;;;;45.15;33.28;;;;;;;11.87;100.00;99137.63;2081945;28;20279;-72
2021/09/12 04:11:32;;;;;;;41.73;32.07;;;;;;;11.87;100.00;99129.59;2081926;28;20255;-73
2021/09/12 04:12:33;;;;;;;38.13;33.00;;;;;;;11.91;100.00;99134.34;2073662;28;20311;-72
2021/09/12 04:13:35;;;;;;;39.42;31.70;;;;;;;11.89;100.00;99127.41;2081945;28;20198;-72
2021/09/12 04:14:37;;;;;;;41.08;31.52;;;;;;;11.94;100.00;99134.53;2090874;28;20191;-72
2021/09/12 04:15:39;;;;;;;39.90;32.05;;;;;;;11.95;100.00;99130.75;2081801;28;20206;-72
2021/09/12 04:16:40;;;;;;;39.95;32.30;;;;;;;11.96;100.00;99137.69;2081928;28;20196;-72
2021/09/12 04:17:41;;;;;;;41.97;32.03;;;;;;;11.97;100.00;99133.91;2090816;28;20190;-72
2021/09/12 04:18:42;;;;;;;40.95;32.95;;;;;;;11.98;100.00;99130.13;2081465;28;20199;-72
2021/09/12 04:19:44;;;;;;;43.50;32.47;;;;;;;11.97;100.00;99128.56;2082092;28;20238;-72
2021/09/12 04:20:45;;;;;;;39.25;31.67;;;;;;;11.98;100.00;99130.13;2090769;28;20201;-72
2021/09/12 04:21:46;;;;;;;41.53;32.83;;;;;;;11.98;100.00;99126.69;2090839;28;20190;-73
2021/09/12 04:22:47;;;;;;;40.47;31.73;;;;;;;11.96;100.00;99126.19;2081145;28;20216;-73
2021/09/12 04:23:48;;;;;;;38.33;31.13;;;;;;;11.97;100.00;99125.88;2082079;28;20706;-72
2021/09/12 04:24:49;;;;;;;40.20;31.63;;;;;;;12.01;100.00;99128.75;2090852;28;20519;-72
2021/09/12 04:25:51;;;;;;;40.00;31.67;;;;;;;12.03;100.00;99124.69;2090634;28;20209;-72
2021/09/12 04:26:53;;;;;;;44.00;33.70;;;;;;;12.03;100.00;99127.38;2081721;28;20670;-72
2021/09/12 04:27:55;;;;;;;40.10;32.25;;;;;;;12.01;100.00;99128.75;2081904;28;20195;-73
2021/09/12 04:28:57;;;;;;;43.05;32.22;;;;;;;12.00;100.00;99127.97;2081814;28;20390;-72
2021/09/12 04:29:59;;;;;;;45.13;31.58;;;;;;;11.98;100.00;99124.78;2073675;28;20193;-72
2021/09/12 04:31:00;;;;;;;43.47;31.75;;;;;;;11.99;100.00;99128.25;2081639;28;20203;-73
2021/09/12 04:32:01;;;;;;;40.17;31.92;;;;;;;11.97;100.00;99133.91;2081746;28;20283;-73
2021/09/12 04:33:03;;;;;;;40.13;32.17;;;;;;;11.96;100.00;99127.00;2090620;28;20183;-73
2021/09/12 04:34:04;;;;;;;46.72;32.42;;;;;;;11.93;100.00;99129.50;2081324;28;20564;-73
2021/09/12 04:35:08;;;;;;;40.42;32.42;;;;;;;11.91;100.00;99135.16;2073590;28;20666;-72
2021/09/12 04:36:09;;;;;;;43.63;32.28;;;;;;;11.93;100.00;99132.94;2082281;28;20192;-73
2021/09/12 04:37:11;;;;;;;43.40;32.10;;;;;;;11.93;100.00;99134.84;2090607;28;20183;-73
2021/09/12 04:38:11;;;;;;;46.65;33.08;;;;;;;11.97;100.00;99141.16;2090531;28;20277;-72
2021/09/12 04:39:13;;;;;;;43.10;33.00;;;;;;;11.96;100.00;99132.34;2081053;28;20243;-72
2021/09/12 04:40:14;;;;;;;40.33;32.22;;;;;;;11.94;100.00;99129.19;2081733;28;20706;-73